createdAt,value
2018-05-07T00:00:07.846Z,17.86
2018-05-07T00:01:07.783Z,17.86
2018-05-07T00:02:07.775Z,17.87
2018-05-07T00:03:07.758Z,17.88
2018-05-07T00:04:07.755Z,17.86
2018-05-07T00:05:07.739Z,17.83
2018-05-07T00:06:07.757Z,17.83
2018-05-07T00:07:07.711Z,17.84
2018-05-07T00:08:07.692Z,17.83
2018-05-07T00:09:07.696Z,17.79
2018-05-07T00:10:07.670Z,17.83
2018-05-07T00:11:07.659Z,17.86
2018-05-07T00:12:07.651Z,17.75
2018-05-07T00:13:07.636Z,17.75
2018-05-07T00:14:07.620Z,17.73
2018-05-07T00:15:07.610Z,17.75
2018-05-07T00:16:07.593Z,17.71
2018-05-07T00:17:07.581Z,17.62
2018-05-07T00:18:07.571Z,17.63
2018-05-07T00:19:07.561Z,17.59
2018-05-07T00:20:07.552Z,17.59
2018-05-07T00:21:07.533Z,17.57
2018-05-07T00:22:07.637Z,17.63
2018-05-07T00:23:07.513Z,17.53
2018-05-07T00:24:07.500Z,17.57
2018-05-07T00:25:07.484Z,17.50
2018-05-07T00:26:07.471Z,17.49
2018-05-07T00:27:07.462Z,17.46
2018-05-07T00:28:07.457Z,17.47
2018-05-07T00:29:07.436Z,17.45
2018-05-07T00:30:07.428Z,17.53
2018-05-07T00:31:07.411Z,17.43
2018-05-07T00:32:07.394Z,17.46
2018-05-07T00:33:07.404Z,17.39
2018-05-07T00:34:07.375Z,17.38
2018-05-07T00:35:07.357Z,17.41
2018-05-07T00:36:07.345Z,17.39
2018-05-07T00:37:07.332Z,17.34
2018-05-07T00:38:07.317Z,17.38
2018-05-07T00:39:07.310Z,17.38
2018-05-07T00:40:07.297Z,17.30
2018-05-07T00:41:07.288Z,17.31
2018-05-07T00:42:07.268Z,17.27
2018-05-07T00:43:07.257Z,17.28
2018-05-07T00:44:07.249Z,17.28
2018-05-07T00:45:07.230Z,17.27
2018-05-07T00:46:07.221Z,17.30
2018-05-07T00:47:07.208Z,17.24
2018-05-07T00:48:07.193Z,17.22
2018-05-07T00:49:07.188Z,17.14
2018-05-07T00:50:07.173Z,17.16
2018-05-07T00:51:07.158Z,17.09
2018-05-07T00:52:07.143Z,17.09
2018-05-07T00:53:07.132Z,17.04
2018-05-07T00:54:07.117Z,17.07
2018-05-07T00:55:07.113Z,17.10
2018-05-07T00:56:07.092Z,17.04
2018-05-07T00:57:07.079Z,16.98
2018-05-07T00:58:07.067Z,17.06
2018-05-07T00:59:07.063Z,16.97
2018-05-07T01:00:07.056Z,16.95
2018-05-07T01:01:07.030Z,16.94
2018-05-07T01:02:07.017Z,16.98
2018-05-07T01:03:07.013Z,16.91
2018-05-07T01:04:06.995Z,16.94
2018-05-07T01:05:06.980Z,16.92
2018-05-07T01:06:06.965Z,16.87
2018-05-07T01:07:06.957Z,16.94
2018-05-07T01:08:06.943Z,16.90
2018-05-07T01:09:06.930Z,16.94
2018-05-07T01:10:06.915Z,16.82
2018-05-07T01:11:06.900Z,16.84
2018-05-07T01:12:06.895Z,16.87
2018-05-07T01:13:06.878Z,16.84
2018-05-07T01:14:06.870Z,16.84
2018-05-07T01:15:06.853Z,16.88
2018-05-07T01:16:06.834Z,16.73
2018-05-07T01:17:06.828Z,16.70
2018-05-07T01:18:06.810Z,16.64
2018-05-07T01:19:06.955Z,16.70
2018-05-07T01:20:06.782Z,16.64
2018-05-07T01:21:06.820Z,16.74
2018-05-07T01:22:06.759Z,16.65
2018-05-07T01:23:06.745Z,16.62
2018-05-07T01:24:06.734Z,16.58
2018-05-07T01:25:06.771Z,16.57
2018-05-07T01:26:06.710Z,16.54
2018-05-07T01:27:06.702Z,16.47
2018-05-07T01:28:06.681Z,16.46
2018-05-07T01:29:06.771Z,16.42
2018-05-07T01:30:06.653Z,16.40
2018-05-07T01:31:06.643Z,16.44
2018-05-07T01:32:06.627Z,16.44
2018-05-07T01:33:06.614Z,16.42
2018-05-07T01:34:06.602Z,16.44
2018-05-07T01:35:06.593Z,16.34
2018-05-07T01:36:06.580Z,16.46
2018-05-07T01:37:06.567Z,16.42
2018-05-07T01:38:06.548Z,16.52
2018-05-07T01:39:06.541Z,16.34
2018-05-07T01:40:06.523Z,16.39
2018-05-07T01:41:06.511Z,16.33
2018-05-07T01:42:06.500Z,16.36
2018-05-07T01:43:06.481Z,16.43
2018-05-07T01:44:06.477Z,16.47
2018-05-07T01:45:06.464Z,16.46
2018-05-07T01:46:06.449Z,16.43
2018-05-07T01:47:06.434Z,16.34
2018-05-07T01:48:06.417Z,16.42
2018-05-07T01:49:06.410Z,16.44
2018-05-07T01:50:06.392Z,16.46
2018-05-07T01:51:06.378Z,16.40
2018-05-07T01:52:06.372Z,16.47
2018-05-07T01:53:06.350Z,16.47
2018-05-07T01:54:06.341Z,16.46
2018-05-07T01:55:06.343Z,16.37
2018-05-07T01:56:06.320Z,16.44
2018-05-07T01:57:06.301Z,16.37
2018-05-07T01:58:06.291Z,16.39
2018-05-07T01:59:06.279Z,16.33
2018-05-07T02:00:06.261Z,16.44
2018-05-07T02:01:06.247Z,16.34
2018-05-07T02:02:06.238Z,16.32
2018-05-07T02:03:06.221Z,16.29
2018-05-07T02:04:06.214Z,16.29
2018-05-07T02:05:06.201Z,16.32
2018-05-07T02:06:06.180Z,16.34
2018-05-07T02:07:06.168Z,16.32
2018-05-07T02:08:06.151Z,16.22
2018-05-07T02:09:06.140Z,16.18
2018-05-07T02:10:06.125Z,16.17
2018-05-07T02:11:06.120Z,16.18
2018-05-07T02:12:06.100Z,16.21
2018-05-07T02:13:06.091Z,16.10
2018-05-07T02:14:06.079Z,16.08
2018-05-07T02:15:06.060Z,16.09
2018-05-07T02:16:06.050Z,16.05
2018-05-07T02:17:06.034Z,16.05
2018-05-07T02:18:06.024Z,16.00
2018-05-07T02:19:06.013Z,15.96
2018-05-07T02:20:05.993Z,15.99
2018-05-07T02:21:05.979Z,15.93
2018-05-07T02:22:05.977Z,15.91
2018-05-07T02:23:05.951Z,15.98
2018-05-07T02:24:05.939Z,15.93
2018-05-07T02:25:05.932Z,15.98
2018-05-07T02:26:05.909Z,15.88
2018-05-07T02:27:05.900Z,15.83
2018-05-07T02:28:05.883Z,15.76
2018-05-07T02:29:05.871Z,15.87
2018-05-07T02:30:05.860Z,15.78
2018-05-07T02:31:05.846Z,15.80
2018-05-07T02:32:05.829Z,15.77
2018-05-07T02:33:05.816Z,15.77
2018-05-07T02:34:05.836Z,15.77
2018-05-07T02:35:05.790Z,15.78
2018-05-07T02:36:05.880Z,15.73
2018-05-07T02:37:05.761Z,15.68
2018-05-07T02:38:05.899Z,15.68
2018-05-07T02:39:05.913Z,15.66
2018-05-07T02:40:05.749Z,15.60
2018-05-07T02:41:05.715Z,15.66
2018-05-07T02:42:05.801Z,15.66
2018-05-07T02:43:05.679Z,15.60
2018-05-07T02:44:05.664Z,15.56
2018-05-07T02:45:05.667Z,15.60
2018-05-07T02:46:05.638Z,15.52
2018-05-07T02:47:05.627Z,15.58
2018-05-07T02:48:05.709Z,15.56
2018-05-07T02:49:05.597Z,15.56
2018-05-07T02:50:05.634Z,15.54
2018-05-07T02:51:05.589Z,15.52
2018-05-07T02:52:05.604Z,15.45
2018-05-07T02:53:05.540Z,15.51
2018-05-07T02:54:05.579Z,15.48
2018-05-07T02:55:05.518Z,15.47
2018-05-07T02:56:05.505Z,15.45
2018-05-07T02:57:05.486Z,15.43
2018-05-07T02:58:05.477Z,15.38
2018-05-07T02:59:05.460Z,15.44
2018-05-07T03:00:05.447Z,15.32
2018-05-07T03:01:05.429Z,15.47
2018-05-07T03:02:05.420Z,15.23
2018-05-07T03:03:05.403Z,15.23
2018-05-07T03:04:05.401Z,15.25
2018-05-07T03:05:05.386Z,15.23
2018-05-07T03:06:05.362Z,15.35
2018-05-07T03:07:05.373Z,15.27
2018-05-07T03:08:05.337Z,15.29
2018-05-07T03:09:05.399Z,15.35
2018-05-07T03:10:05.305Z,15.38
2018-05-07T03:11:05.296Z,15.32
2018-05-07T03:12:05.355Z,15.36
2018-05-07T03:13:05.269Z,15.32
2018-05-07T03:14:05.255Z,15.35
2018-05-07T03:15:05.240Z,15.29
2018-05-07T03:16:05.231Z,15.26
2018-05-07T03:17:05.210Z,15.22
2018-05-07T03:18:05.196Z,15.25
2018-05-07T03:19:05.182Z,15.23
2018-05-07T03:20:05.168Z,15.23
2018-05-07T03:21:05.152Z,15.19
2018-05-07T03:22:05.151Z,15.29
2018-05-07T03:23:05.126Z,15.30
2018-05-07T03:24:05.111Z,15.33
2018-05-07T03:25:05.101Z,15.38
2018-05-07T03:26:05.089Z,15.38
2018-05-07T03:27:05.072Z,15.43
2018-05-07T03:28:05.059Z,15.44
2018-05-07T03:29:05.044Z,15.43
2018-05-07T03:30:05.033Z,15.45
2018-05-07T03:31:05.024Z,15.32
2018-05-07T03:32:05.000Z,15.32
2018-05-07T03:33:04.985Z,15.33
2018-05-07T03:34:04.969Z,15.26
2018-05-07T03:35:04.959Z,15.22
2018-05-07T03:36:04.945Z,15.26
2018-05-07T03:37:04.929Z,15.26
2018-05-07T03:38:04.917Z,15.30
2018-05-07T03:39:04.898Z,15.29
2018-05-07T03:40:04.887Z,15.20
2018-05-07T03:41:04.872Z,15.29
2018-05-07T03:42:04.916Z,15.20
2018-05-07T03:43:04.845Z,15.25
2018-05-07T03:44:04.828Z,15.15
2018-05-07T03:45:04.815Z,15.20
2018-05-07T03:46:04.802Z,15.12
2018-05-07T03:47:04.801Z,15.12
2018-05-07T03:48:04.775Z,15.12
2018-05-07T03:49:04.760Z,15.12
2018-05-07T03:50:04.761Z,15.11
2018-05-07T03:51:04.732Z,15.10
2018-05-07T03:52:04.720Z,15.01
2018-05-07T03:53:04.705Z,15.05
2018-05-07T03:54:04.690Z,14.96
2018-05-07T03:55:04.683Z,15.04
2018-05-07T03:56:04.666Z,14.99
2018-05-07T03:57:04.649Z,14.93
2018-05-07T03:58:04.644Z,14.99
2018-05-07T03:59:04.620Z,14.93
2018-05-07T04:00:04.612Z,14.87
2018-05-07T04:01:04.593Z,14.90
2018-05-07T04:02:04.580Z,14.87
2018-05-07T04:03:04.569Z,14.85
2018-05-07T04:04:04.552Z,14.83
2018-05-07T04:05:04.534Z,14.86
2018-05-07T04:06:04.520Z,14.82
2018-05-07T04:07:04.512Z,14.83
2018-05-07T04:08:04.490Z,14.86
2018-05-07T04:09:04.481Z,14.83
2018-05-07T04:10:04.462Z,14.87
2018-05-07T04:11:04.447Z,14.86
2018-05-07T04:12:04.432Z,14.86
2018-05-07T04:13:04.430Z,14.89
2018-05-07T04:14:04.405Z,14.77
2018-05-07T04:15:04.392Z,14.82
2018-05-07T04:16:04.379Z,14.83
2018-05-07T04:17:04.367Z,14.77
2018-05-07T04:18:04.350Z,14.78
2018-05-07T04:19:04.335Z,14.82
2018-05-07T04:20:04.323Z,14.85
2018-05-07T04:21:04.309Z,14.79
2018-05-07T04:22:04.295Z,14.90
2018-05-07T04:23:04.283Z,14.87
2018-05-07T04:24:04.271Z,14.87
2018-05-07T04:25:04.248Z,14.86
2018-05-07T04:26:04.238Z,14.86
2018-05-07T04:27:04.273Z,14.83
2018-05-07T04:28:04.208Z,14.85
2018-05-07T04:29:04.195Z,14.78
2018-05-07T04:30:04.180Z,14.82
2018-05-07T04:31:04.171Z,14.82
2018-05-07T04:32:04.148Z,14.77
2018-05-07T04:33:04.139Z,14.82
2018-05-07T04:34:04.120Z,14.85
2018-05-07T04:35:04.110Z,14.79
2018-05-07T04:36:04.100Z,14.79
2018-05-07T04:37:04.130Z,14.82
2018-05-07T04:38:04.064Z,14.74
2018-05-07T04:39:04.052Z,14.78
2018-05-07T04:40:04.041Z,14.71
2018-05-07T04:41:04.019Z,14.78
2018-05-07T04:42:04.011Z,14.71
2018-05-07T04:43:03.993Z,14.71
2018-05-07T04:44:03.980Z,14.71
2018-05-07T04:45:03.963Z,14.82
2018-05-07T04:46:03.950Z,14.78
2018-05-07T04:47:03.935Z,14.79
2018-05-07T04:48:03.920Z,14.70
2018-05-07T04:49:03.911Z,14.82
2018-05-07T04:50:03.899Z,14.79
2018-05-07T04:51:03.880Z,14.79
2018-05-07T04:52:03.867Z,14.78
2018-05-07T04:53:03.850Z,14.86
2018-05-07T04:54:03.835Z,14.85
2018-05-07T04:55:03.897Z,14.86
2018-05-07T04:56:03.805Z,14.73
2018-05-07T04:57:03.800Z,14.86
2018-05-07T04:58:03.790Z,14.92
2018-05-07T04:59:03.770Z,14.82
2018-05-07T05:00:03.754Z,14.83
2018-05-07T05:01:03.739Z,14.74
2018-05-07T05:02:03.719Z,14.78
2018-05-07T05:03:03.708Z,14.82
2018-05-07T05:04:03.700Z,14.79
2018-05-07T05:05:03.682Z,14.86
2018-05-07T05:06:03.670Z,14.90
2018-05-07T05:07:03.654Z,14.99
2018-05-07T05:08:03.644Z,15.04
2018-05-07T05:09:03.618Z,15.10
2018-05-07T05:10:03.609Z,15.20
2018-05-07T05:11:03.593Z,15.26
2018-05-07T05:12:03.579Z,15.25
2018-05-07T05:13:03.571Z,15.20
2018-05-07T05:14:03.551Z,15.23
2018-05-07T05:15:03.540Z,15.23
2018-05-07T05:16:03.524Z,15.25
2018-05-07T05:17:03.511Z,15.29
2018-05-07T05:18:03.500Z,15.27
2018-05-07T05:19:03.480Z,15.25
2018-05-07T05:20:03.469Z,15.25
2018-05-07T05:21:03.486Z,15.20
2018-05-07T05:22:03.437Z,15.27
2018-05-07T05:23:03.425Z,15.25
2018-05-07T05:24:03.410Z,15.11
2018-05-07T05:25:03.396Z,15.11
2018-05-07T05:26:03.381Z,15.15
2018-05-07T05:27:03.370Z,15.29
2018-05-07T05:28:03.355Z,15.26
2018-05-07T05:29:03.341Z,15.27
2018-05-07T05:30:03.330Z,15.29
2018-05-07T05:31:03.313Z,15.25
2018-05-07T05:32:03.298Z,15.33
2018-05-07T05:33:03.306Z,15.38
2018-05-07T05:34:03.271Z,15.44
2018-05-07T05:35:03.256Z,15.60
2018-05-07T05:36:03.240Z,15.58
2018-05-07T05:37:03.234Z,15.56
2018-05-07T05:38:03.221Z,15.66
2018-05-07T05:39:03.200Z,15.65
2018-05-07T05:40:03.190Z,15.68
2018-05-07T05:41:03.168Z,15.73
2018-05-07T05:42:03.161Z,15.68
2018-05-07T05:43:03.141Z,15.63
2018-05-07T05:44:03.131Z,15.78
2018-05-07T05:45:03.113Z,15.76
2018-05-07T05:46:03.106Z,15.84
2018-05-07T05:47:03.088Z,15.77
2018-05-07T05:48:03.073Z,15.85
2018-05-07T05:49:03.060Z,15.80
2018-05-07T05:50:03.150Z,15.81
2018-05-07T05:51:03.029Z,15.84
2018-05-07T05:52:03.021Z,15.91
2018-05-07T05:53:03.010Z,15.96
2018-05-07T05:54:03.000Z,16.00
2018-05-07T05:55:02.980Z,15.88
2018-05-07T05:56:02.963Z,15.87
2018-05-07T05:57:02.955Z,15.91
2018-05-07T05:58:02.943Z,15.99
2018-05-07T05:59:02.924Z,16.05
2018-05-07T06:00:02.910Z,16.03
2018-05-07T06:01:02.899Z,16.08
2018-05-07T06:02:02.880Z,16.09
2018-05-07T06:03:02.865Z,16.14
2018-05-07T06:04:02.915Z,16.08
2018-05-07T06:05:02.843Z,16.24
2018-05-07T06:06:02.824Z,16.33
2018-05-07T06:07:02.821Z,16.32
2018-05-07T06:08:02.802Z,16.28
2018-05-07T06:09:02.888Z,16.40
2018-05-07T06:10:02.775Z,16.43
2018-05-07T06:11:02.762Z,16.52
2018-05-07T06:12:02.751Z,16.58
2018-05-07T06:13:02.736Z,16.64
2018-05-07T06:14:02.719Z,16.64
2018-05-07T06:15:02.895Z,16.61
2018-05-07T06:16:02.692Z,16.72
2018-05-07T06:17:02.681Z,16.74
2018-05-07T06:18:02.670Z,16.72
2018-05-07T06:19:02.652Z,16.73
2018-05-07T06:20:02.640Z,16.69
2018-05-07T06:21:02.632Z,16.83
2018-05-07T06:22:02.609Z,16.92
2018-05-07T06:23:02.600Z,16.87
2018-05-07T06:24:02.580Z,17.01
2018-05-07T06:25:02.574Z,16.98
2018-05-07T06:26:02.555Z,17.10
2018-05-07T06:27:02.541Z,17.06
2018-05-07T06:28:02.531Z,17.20
2018-05-07T06:29:02.514Z,17.28
2018-05-07T06:30:02.555Z,17.31
2018-05-07T06:31:02.490Z,17.31
2018-05-07T06:32:02.481Z,17.30
2018-05-07T06:33:02.461Z,17.30
2018-05-07T06:34:02.457Z,17.30
2018-05-07T06:35:02.449Z,17.31
2018-05-07T06:36:02.433Z,17.34
2018-05-07T06:37:02.424Z,17.37
2018-05-07T06:38:02.411Z,17.34
2018-05-07T06:39:02.461Z,17.38
2018-05-07T06:40:02.380Z,17.39
2018-05-07T06:41:02.357Z,17.41
2018-05-07T06:42:02.352Z,17.49
2018-05-07T06:43:02.337Z,17.53
2018-05-07T06:44:02.325Z,17.57
2018-05-07T06:45:02.310Z,17.63
2018-05-07T06:46:02.342Z,17.72
2018-05-07T06:47:02.283Z,17.87
2018-05-07T06:48:02.272Z,17.88
2018-05-07T06:49:02.262Z,17.87
2018-05-07T06:50:02.252Z,18.11
2018-05-07T06:51:02.234Z,18.08
2018-05-07T06:52:02.230Z,18.02
2018-05-07T06:53:02.202Z,18.21
2018-05-07T06:54:02.193Z,18.20
2018-05-07T06:55:02.176Z,18.26
2018-05-07T06:56:02.164Z,18.42
2018-05-07T06:57:02.171Z,18.31
2018-05-07T06:58:02.139Z,18.30
2018-05-07T06:59:02.140Z,18.27
2018-05-07T07:00:02.116Z,18.36
2018-05-07T07:01:02.105Z,18.42
2018-05-07T07:02:02.172Z,18.45
2018-05-07T07:03:02.181Z,18.52
2018-05-07T07:04:02.073Z,18.54
2018-05-07T07:05:02.051Z,18.52
2018-05-07T07:06:02.041Z,18.58
2018-05-07T07:07:02.031Z,18.78
2018-05-07T07:08:02.156Z,18.78
2018-05-07T07:09:02.012Z,18.82
2018-05-07T07:10:01.993Z,18.78
2018-05-07T07:11:01.981Z,18.76
2018-05-07T07:12:01.970Z,18.86
2018-05-07T07:13:01.959Z,18.89
2018-05-07T07:14:01.940Z,19.07
2018-05-07T07:15:01.932Z,19.16
2018-05-07T07:16:01.919Z,19.09
2018-05-07T07:17:01.904Z,19.22
2018-05-07T07:18:01.904Z,19.37
2018-05-07T07:19:01.892Z,19.39
2018-05-07T07:20:01.881Z,19.44
2018-05-07T07:21:01.861Z,19.50
2018-05-07T07:22:01.847Z,19.47
2018-05-07T07:23:01.835Z,19.50
2018-05-07T07:24:01.830Z,19.54
2018-05-07T07:25:01.826Z,19.54
2018-05-07T07:26:01.798Z,19.68
2018-05-07T07:27:01.791Z,19.75
2018-05-07T07:28:01.851Z,19.86
2018-05-07T07:29:01.761Z,19.92
2018-05-07T07:30:01.763Z,20.00
2018-05-07T07:31:01.745Z,20.07
2018-05-07T07:32:01.734Z,19.90
2018-05-07T07:33:01.754Z,19.97
2018-05-07T07:34:01.745Z,20.02
2018-05-07T07:35:01.699Z,20.09
2018-05-07T07:36:01.692Z,20.17
2018-05-07T07:37:01.679Z,20.30
2018-05-07T07:38:01.663Z,20.25
2018-05-07T07:39:01.652Z,20.33
2018-05-07T07:40:01.644Z,20.50
2018-05-07T07:41:01.631Z,20.42
2018-05-07T07:42:01.623Z,20.56
2018-05-07T07:43:01.620Z,20.27
2018-05-07T07:44:01.609Z,20.25
2018-05-07T07:45:01.598Z,20.17
2018-05-07T07:46:01.587Z,20.26
2018-05-07T07:47:01.677Z,20.41
2018-05-07T07:48:01.571Z,20.65
2018-05-07T07:49:01.561Z,20.77
2018-05-07T07:50:01.556Z,20.95
2018-05-07T07:51:01.549Z,21.14
2018-05-07T07:52:01.544Z,21.19
2018-05-07T07:53:01.543Z,21.38
2018-05-07T07:54:01.532Z,21.47
2018-05-07T07:55:01.532Z,21.60
2018-05-07T07:56:01.522Z,21.93
2018-05-07T07:57:01.523Z,22.12
2018-05-07T07:58:01.522Z,22.38
2018-05-07T07:59:01.513Z,22.48
2018-05-07T08:00:01.514Z,22.93
2018-05-07T08:01:01.507Z,22.53
2018-05-07T08:02:01.509Z,22.74
2018-05-07T08:03:01.501Z,22.81
2018-05-07T08:04:01.506Z,23.42
2018-05-07T08:05:01.499Z,23.37
2018-05-07T08:06:01.494Z,23.97
2018-05-07T08:07:01.498Z,24.36
2018-05-07T08:08:01.501Z,24.94
2018-05-07T08:09:01.498Z,25.46
2018-05-07T08:10:01.499Z,25.31
2018-05-07T08:11:01.498Z,25.61
2018-05-07T08:12:01.520Z,26.11
2018-05-07T08:13:01.497Z,25.67
2018-05-07T08:14:01.497Z,25.46
2018-05-07T08:15:01.502Z,25.88
2018-05-07T08:16:01.502Z,25.96
2018-05-07T08:17:01.505Z,25.33
2018-05-07T08:18:01.523Z,26.07
2018-05-07T08:19:01.513Z,25.77
2018-05-07T08:20:01.513Z,25.86
2018-05-07T08:21:01.516Z,25.46
2018-05-07T08:22:01.522Z,25.88
2018-05-07T08:23:01.523Z,26.53
2018-05-07T08:24:01.533Z,26.82
2018-05-07T08:25:01.533Z,26.79
2018-05-07T08:26:01.532Z,27.16
2018-05-07T08:27:01.610Z,27.22
2018-05-07T08:28:01.540Z,27.68
2018-05-07T08:29:01.536Z,27.60
2018-05-07T08:30:01.541Z,27.64
2018-05-07T08:31:01.542Z,27.42
2018-05-07T08:32:01.557Z,27.94
2018-05-07T08:33:01.557Z,28.20
2018-05-07T08:34:01.562Z,27.15
2018-05-07T08:35:01.564Z,27.53
2018-05-07T08:36:01.562Z,27.72
2018-05-07T08:37:01.569Z,26.93
2018-05-07T08:38:01.571Z,26.67
2018-05-07T08:39:01.585Z,27.32
2018-05-07T08:40:01.584Z,27.38
2018-05-07T08:41:01.586Z,28.07
2018-05-07T08:42:01.592Z,27.87
2018-05-07T08:43:01.595Z,27.37
2018-05-07T08:44:01.599Z,27.38
2018-05-07T08:45:01.618Z,28.38
2018-05-07T08:46:01.664Z,27.85
2018-05-07T08:47:01.613Z,27.87
2018-05-07T08:48:01.614Z,28.07
2018-05-07T08:49:01.622Z,27.82
2018-05-07T08:50:01.628Z,28.10
2018-05-07T08:51:01.695Z,28.22
2018-05-07T08:52:01.626Z,28.83
2018-05-07T08:53:01.726Z,29.36
2018-05-07T08:54:01.639Z,27.16
2018-05-07T08:55:01.644Z,25.61
2018-05-07T08:56:01.666Z,26.10
2018-05-07T08:57:01.656Z,26.53
2018-05-07T08:58:01.660Z,27.52
2018-05-07T08:59:01.664Z,27.94
2018-05-07T09:00:01.664Z,28.38
2018-05-07T09:01:01.673Z,29.22
2018-05-07T09:02:01.797Z,29.71
2018-05-07T09:03:01.675Z,30.52
2018-05-07T09:04:01.684Z,31.02
2018-05-07T09:05:01.685Z,31.34
2018-05-07T09:06:01.681Z,30.20
2018-05-07T09:07:01.739Z,29.36
2018-05-07T09:08:01.785Z,28.07
2018-05-07T09:09:01.791Z,26.82
2018-05-07T09:10:01.694Z,27.16
2018-05-07T09:11:01.703Z,27.87
2018-05-07T09:12:01.711Z,26.90
2018-05-07T09:13:01.715Z,26.33
2018-05-07T09:14:01.706Z,27.15
2018-05-07T09:15:01.710Z,27.47
2018-05-07T09:16:01.714Z,27.95
2018-05-07T09:17:01.726Z,28.62
2018-05-07T09:18:01.713Z,29.54
2018-05-07T09:19:01.724Z,29.27
2018-05-07T09:20:01.724Z,28.10
2018-05-07T09:21:01.722Z,27.32
2018-05-07T09:22:01.718Z,28.09
2018-05-07T09:23:01.723Z,29.21
2018-05-07T09:24:01.723Z,29.47
2018-05-07T09:25:01.723Z,28.50
2018-05-07T09:26:01.720Z,28.75
2018-05-07T09:27:01.727Z,29.21
2018-05-07T09:28:01.723Z,29.06
2018-05-07T09:29:01.721Z,29.55
2018-05-07T09:30:01.820Z,30.24
2018-05-07T09:31:01.725Z,29.83
2018-05-07T09:32:01.824Z,28.80
2018-05-07T09:33:01.721Z,28.22
2018-05-07T09:34:01.723Z,28.12
2018-05-07T09:35:01.716Z,27.82
2018-05-07T09:36:01.718Z,27.73
2018-05-07T09:37:01.765Z,27.61
2018-05-07T09:38:01.716Z,27.45
2018-05-07T09:39:01.718Z,27.53
2018-05-07T09:40:01.712Z,27.35
2018-05-07T09:41:01.706Z,27.30
2018-05-07T09:42:01.702Z,27.22
2018-05-07T09:43:01.737Z,27.31
2018-05-07T09:44:01.758Z,27.34
2018-05-07T09:45:01.693Z,27.16
2018-05-07T09:46:01.686Z,27.25
2018-05-07T09:47:01.689Z,27.23
2018-05-07T09:48:01.684Z,27.40
2018-05-07T09:49:01.763Z,27.26
2018-05-07T09:50:01.678Z,27.32
2018-05-07T09:51:01.671Z,27.20
2018-05-07T09:52:01.672Z,27.31
2018-05-07T09:53:01.663Z,27.03
2018-05-07T09:54:01.658Z,27.00
2018-05-07T09:55:01.685Z,27.04
2018-05-07T09:56:01.655Z,26.94
2018-05-07T09:57:01.664Z,27.16
2018-05-07T09:58:01.646Z,27.19
2018-05-07T09:59:01.643Z,26.98
2018-05-07T10:00:01.629Z,27.07
2018-05-07T10:01:01.685Z,27.13
2018-05-07T10:02:01.623Z,26.94
2018-05-07T10:03:01.717Z,27.00
2018-05-07T10:04:01.615Z,27.04
2018-05-07T10:05:01.608Z,27.17
2018-05-07T10:06:01.607Z,26.89
2018-05-07T10:07:01.593Z,26.97
2018-05-07T10:08:01.591Z,27.12
2018-05-07T10:09:01.585Z,27.38
2018-05-07T10:10:01.590Z,27.41
2018-05-07T10:11:01.573Z,27.60
2018-05-07T10:12:01.565Z,27.82
2018-05-07T10:13:01.563Z,28.06
2018-05-07T10:14:01.554Z,28.20
2018-05-07T10:15:01.552Z,28.40
2018-05-07T10:16:01.555Z,28.56
2018-05-07T10:17:01.597Z,28.79
2018-05-07T10:18:01.531Z,28.71
2018-05-07T10:19:01.533Z,28.94
2018-05-07T10:20:01.520Z,28.98
2018-05-07T10:21:01.521Z,28.98
2018-05-07T10:22:01.511Z,28.54
2018-05-07T10:23:01.506Z,28.13
2018-05-07T10:24:01.502Z,27.94
2018-05-07T10:25:01.495Z,27.78
2018-05-07T10:26:01.491Z,27.97
2018-05-07T10:27:01.482Z,28.20
2018-05-07T10:28:01.506Z,28.65
2018-05-07T10:29:01.469Z,28.10
2018-05-07T10:30:01.473Z,28.12
2018-05-07T10:31:01.460Z,28.24
2018-05-07T10:32:01.460Z,27.75
2018-05-07T10:33:01.447Z,27.73
2018-05-07T10:34:01.441Z,27.80
2018-05-07T10:35:01.444Z,27.87
2018-05-07T10:36:01.431Z,27.80
2018-05-07T10:37:01.424Z,27.66
2018-05-07T10:38:01.440Z,27.78
2018-05-07T10:39:01.412Z,28.00
2018-05-07T10:40:01.415Z,27.95
2018-05-07T10:41:01.403Z,28.10
2018-05-07T10:42:01.399Z,27.91
2018-05-07T10:43:01.401Z,28.00
2018-05-07T10:44:01.385Z,28.10
2018-05-07T10:45:01.380Z,28.01
2018-05-07T10:46:01.374Z,27.80
2018-05-07T10:47:01.371Z,27.58
2018-05-07T10:48:01.362Z,27.22
2018-05-07T10:49:01.355Z,26.65
2018-05-07T10:50:01.350Z,26.79
2018-05-07T10:51:01.344Z,26.57
2018-05-07T10:52:01.342Z,26.48
2018-05-07T10:53:01.329Z,26.58
2018-05-07T10:54:01.325Z,26.71
2018-05-07T10:55:01.333Z,26.82
2018-05-07T10:56:01.319Z,26.71
2018-05-07T10:57:01.311Z,26.58
2018-05-07T10:58:01.300Z,26.79
2018-05-07T10:59:01.296Z,27.03
2018-05-07T11:00:01.292Z,27.19
2018-05-07T11:01:01.291Z,27.40
2018-05-07T11:02:01.285Z,27.42
2018-05-07T11:03:01.270Z,27.50
2018-05-07T11:04:01.264Z,27.61
2018-05-07T11:05:01.258Z,27.70
2018-05-07T11:06:01.260Z,27.66
2018-05-07T11:07:01.250Z,27.64
2018-05-07T11:08:01.239Z,27.69
2018-05-07T11:09:01.238Z,27.76
2018-05-07T11:10:01.230Z,27.97
2018-05-07T11:11:01.225Z,27.97
2018-05-07T11:12:01.221Z,27.98
2018-05-07T11:13:01.209Z,28.10
2018-05-07T11:14:01.213Z,28.06
2018-05-07T11:15:01.203Z,28.00
2018-05-07T11:16:01.200Z,28.09
2018-05-07T11:17:01.189Z,28.06
2018-05-07T11:18:01.190Z,28.13
2018-05-07T11:19:01.181Z,28.10
2018-05-07T11:20:01.173Z,28.16
2018-05-07T11:21:01.169Z,28.28
2018-05-07T11:22:01.160Z,28.50
2018-05-07T11:23:01.156Z,28.61
2018-05-07T11:24:01.150Z,28.74
2018-05-07T11:25:01.142Z,28.83
2018-05-07T11:26:01.137Z,28.75
2018-05-07T11:27:01.141Z,28.83
2018-05-07T11:28:01.131Z,28.79
2018-05-07T11:29:01.129Z,28.37
2018-05-07T11:30:01.121Z,28.20
2018-05-07T11:31:01.185Z,28.22
2018-05-07T11:32:01.114Z,28.25
2018-05-07T11:33:01.112Z,28.15
2018-05-07T11:34:01.102Z,28.07
2018-05-07T11:35:01.088Z,28.12
2018-05-07T11:36:01.086Z,28.25
2018-05-07T11:37:01.087Z,28.05
2018-05-07T11:38:01.078Z,28.07
2018-05-07T11:39:01.170Z,28.07
2018-05-07T11:40:01.061Z,28.24
2018-05-07T11:41:01.062Z,28.32
2018-05-07T11:42:01.049Z,28.42
2018-05-07T11:43:01.049Z,28.49
2018-05-07T11:44:01.042Z,28.52
2018-05-07T11:45:01.044Z,28.34
2018-05-07T11:46:01.030Z,28.28
2018-05-07T11:47:01.032Z,27.97
2018-05-07T11:48:01.021Z,27.90
2018-05-07T11:49:01.017Z,28.10
2018-05-07T11:50:01.015Z,28.10
2018-05-07T11:51:01.009Z,27.94
2018-05-07T11:52:00.997Z,27.95
2018-05-07T11:53:00.990Z,27.98
2018-05-07T11:54:00.990Z,27.85
2018-05-07T11:55:00.990Z,27.79
2018-05-07T11:56:00.978Z,27.79
2018-05-07T11:57:00.973Z,28.12
2018-05-07T11:58:00.969Z,28.16
2018-05-07T11:59:00.958Z,28.10
2018-05-07T12:00:00.954Z,27.95
2018-05-07T12:01:00.948Z,28.13
2018-05-07T12:02:00.944Z,27.94
2018-05-07T12:03:00.938Z,27.78
2018-05-07T12:04:00.932Z,27.98
2018-05-07T12:05:00.928Z,28.07
2018-05-07T12:06:00.919Z,28.01
2018-05-07T12:07:00.916Z,27.82
2018-05-07T12:08:00.921Z,27.95
2018-05-07T12:09:00.976Z,28.10
2018-05-07T12:10:00.900Z,28.25
2018-05-07T12:11:00.893Z,28.19
2018-05-07T12:12:00.888Z,28.25
2018-05-07T12:13:00.884Z,28.12
2018-05-07T12:14:00.879Z,28.13
2018-05-07T12:15:00.882Z,28.03
2018-05-07T12:16:00.930Z,28.15
2018-05-07T12:17:00.864Z,28.22
2018-05-07T12:18:00.861Z,28.34
2018-05-07T12:19:00.849Z,28.24
2018-05-07T12:20:00.842Z,28.06
2018-05-07T12:21:00.849Z,27.93
2018-05-07T12:22:00.833Z,27.91
2018-05-07T12:23:00.829Z,28.00
2018-05-07T12:24:00.820Z,28.10
2018-05-07T12:25:00.914Z,28.20
2018-05-07T12:26:00.812Z,28.34
2018-05-07T12:27:00.810Z,28.42
2018-05-07T12:28:00.803Z,28.65
2018-05-07T12:29:00.793Z,28.80
2018-05-07T12:30:00.786Z,28.89
2018-05-07T12:31:00.786Z,28.96
2018-05-07T12:32:00.777Z,29.18
2018-05-07T12:33:00.825Z,29.19
2018-05-07T12:34:00.767Z,29.27
2018-05-07T12:35:00.761Z,29.41
2018-05-07T12:36:00.758Z,29.49
2018-05-07T12:37:00.750Z,29.19
2018-05-07T12:38:00.743Z,29.09
2018-05-07T12:39:00.740Z,29.13
2018-05-07T12:40:00.744Z,29.17
2018-05-07T12:41:00.727Z,29.28
2018-05-07T12:42:00.724Z,29.09
2018-05-07T12:43:00.720Z,28.86
2018-05-07T12:44:00.720Z,28.93
2018-05-07T12:45:00.706Z,28.94
2018-05-07T12:46:00.711Z,29.12
2018-05-07T12:47:00.696Z,29.31
2018-05-07T12:48:00.699Z,29.36
2018-05-07T12:49:00.691Z,29.50
2018-05-07T12:50:00.679Z,29.49
2018-05-07T12:51:00.676Z,29.58
2018-05-07T12:52:00.673Z,29.52